Time;durP1;ratioP1;P1;durP2;ratioP2;P2;SDS_P1;SDS_P2;PMS_P1;PMS_P2;Temp;Humidity;BMP_temperature;BMP_pressure;BME280_temperature;BME280_humidity;BME280_pressure;Samples;Min_cycle;Max_cycle;Signal;HPM_P1;HPM_P2
2023/08/25 00:00:27;;;;;;;36.15;19.95;;;28.10;81.80;;;;;;5094609;28;20051;-70
2023/08/25 00:03:30;;;;;;;28.98;19.77;;;28.10;82.00;;;;;;5094438;28;20063;-69
2023/08/25 00:06:34;;;;;;;35.70;20.77;;;28.10;81.80;;;;;;5094203;28;20047;-69
2023/08/25 00:09:38;;;;;;;27.55;18.75;;;28.10;81.50;;;;;;5094430;28;20043;-69
2023/08/25 00:12:42;;;;;;;37.03;19.58;;;28.10;81.60;;;;;;5094249;28;20522;-69
2023/08/25 00:15:46;;;;;;;37.10;20.63;;;27.90;82.10;;;;;;5094432;28;20047;-70
2023/08/25 00:18:51;;;;;;;35.47;19.85;;;27.70;82.70;;;;;;5094023;28;20055;-69
2023/08/25 00:21:55;;;;;;;29.10;19.98;;;27.70;82.50;;;;;;5093235;28;20039;-69
2023/08/25 00:25:03;;;;;;;30.23;19.33;;;27.70;82.60;;;;;;5093926;28;20051;-69
2023/08/25 00:28:07;;;;;;;29.55;19.50;;;27.70;82.40;;;;;;5094157;28;20055;-69
2023/08/25 00:31:12;;;;;;;34.28;19.10;;;27.70;82.40;;;;;;5093970;28;20051;-69
2023/08/25 00:34:17;;;;;;;36.17;20.23;;;27.70;82.20;;;;;;5092992;28;20407;-68
2023/08/25 00:37:21;;;;;;;38.72;21.23;;;27.70;82.80;;;;;;5092289;28;20043;-69
2023/08/25 00:40:25;;;;;;;33.42;21.10;;;27.60;83.40;;;;;;5093750;28;20051;-69
2023/08/25 00:43:30;;;;;;;29.00;20.85;;;27.50;83.90;;;;;;5093597;28;20047;-69
2023/08/25 00:46:34;;;;;;;31.65;19.85;;;27.50;84.40;;;;;;5093650;28;20396;-69
2023/08/25 00:49:40;;;;;;;28.08;20.10;;;27.50;83.50;;;;;;5093274;28;20043;-69
2023/08/25 00:52:44;;;;;;;27.88;19.85;;;27.50;83.60;;;;;;5092470;28;20523;-69
2023/08/25 00:55:48;;;;;;;28.70;19.88;;;27.50;83.10;;;;;;5080991;28;20051;-69
2023/08/25 00:58:54;;;;;;;30.67;19.95;;;27.60;83.20;;;;;;5092203;28;20047;-69
2023/08/25 01:01:59;;;;;;;30.73;21.25;;;27.70;82.40;;;;;;5093189;28;20043;-69
2023/08/25 01:05:03;;;;;;;32.45;20.10;;;27.60;82.50;;;;;;5093120;28;20534;-69
2023/08/25 01:08:08;;;;;;;32.95;21.00;;;27.50;83.20;;;;;;5092894;28;20036;-69
2023/08/25 01:11:31;;;;;;;33.42;19.77;;;27.50;83.70;;;;;;5092895;28;20396;-69
2023/08/25 01:14:58;;;;;;;34.53;22.13;;;27.50;83.90;;;;;;5093184;28;20055;-69
2023/08/25 01:18:11;;;;;;;26.05;20.52;;;27.50;83.80;;;;;;5092863;28;20403;-69
2023/08/25 01:21:15;;;;;;;30.75;20.70;;;27.50;83.80;;;;;;5093020;28;20047;-69
2023/08/25 01:24:29;;;;;;;38.58;23.15;;;27.50;83.90;;;;;;5091619;28;20042;-69
2023/08/25 01:27:34;;;;;;;36.95;22.15;;;27.50;83.80;;;;;;5092042;28;20102;-69
2023/08/25 01:30:39;;;;;;;33.35;21.45;;;27.40;84.20;;;;;;5092526;28;20063;-69
2023/08/25 01:33:45;;;;;;;36.42;22.90;;;27.30;84.20;;;;;;5092400;28;20054;-69
2023/08/25 01:37:10;;;;;;;35.85;23.05;;;27.20;84.60;;;;;;5091821;28;20051;-69
2023/08/25 01:40:21;;;;;;;34.90;23.02;;;27.10;85.10;;;;;;5091775;28;20043;-69
2023/08/25 01:43:32;;;;;;;42.97;22.13;;;27.10;85.20;;;;;;5091348;28;20141;-69
2023/08/25 01:46:37;;;;;;;31.02;21.63;;;27.10;85.20;;;;;;5092411;28;20039;-69
2023/08/25 01:49:41;;;;;;;33.75;21.48;;;27.10;85.00;;;;;;5092166;28;20494;-69
2023/08/25 01:52:45;;;;;;;34.80;22.20;;;27.10;85.10;;;;;;5092510;28;20043;-69
2023/08/25 01:55:49;;;;;;;29.92;21.88;;;27.10;84.80;;;;;;5092241;28;20502;-68
2023/08/25 01:58:53;;;;;;;28.13;20.20;;;27.10;84.60;;;;;;5091195;28;20055;-70
2023/08/25 02:01:57;;;;;;;36.00;21.60;;;27.00;84.40;;;;;;5091569;28;20035;-69
2023/08/25 02:05:01;;;;;;;31.08;20.92;;;27.00;85.00;;;;;;5091382;28;20047;-69
2023/08/25 02:08:05;;;;;;;34.72;21.08;;;27.10;85.10;;;;;;5092062;28;20403;-70
2023/08/25 02:11:11;;;;;;;28.20;21.05;;;27.20;84.80;;;;;;5091248;28;20050;-69
2023/08/25 02:14:14;;;;;;;38.97;21.65;;;27.10;84.60;;;;;;5091926;28;20054;-69
2023/08/25 02:17:18;;;;;;;31.02;21.33;;;27.10;84.60;;;;;;5091891;28;20051;-69
2023/08/25 02:20:24;;;;;;;33.88;21.30;;;27.10;84.70;;;;;;5090846;28;20051;-68
2023/08/25 02:23:28;;;;;;;36.78;20.85;;;27.00;84.80;;;;;;5091802;28;20059;-70
2023/08/25 02:26:32;;;;;;;32.00;19.90;;;26.90;84.90;;;;;;5090978;28;20043;-69
2023/08/25 02:29:36;;;;;;;27.40;19.73;;;26.90;84.10;;;;;;5090857;28;20039;-68
2023/08/25 02:32:40;;;;;;;33.17;21.10;;;26.90;84.30;;;;;;5090508;28;20408;-69
2023/08/25 02:35:44;;;;;;;31.52;20.63;;;27.00;84.80;;;;;;5091729;28;20043;-69
2023/08/25 02:38:48;;;;;;;38.78;20.38;;;27.00;84.70;;;;;;5090563;28;20059;-69
2023/08/25 02:41:53;;;;;;;34.53;20.92;;;27.10;84.00;;;;;;5091423;28;20487;-69
2023/08/25 02:44:56;;;;;;;32.30;20.38;;;27.20;83.50;;;;;;5090865;28;20047;-69
2023/08/25 02:48:01;;;;;;;37.03;21.65;;;27.20;83.00;;;;;;5091556;28;20047;-69
2023/08/25 02:51:04;;;;;;;33.38;21.17;;;27.10;83.70;;;;;;5090815;28;20047;-69
2023/08/25 02:54:08;;;;;;;32.75;21.33;;;27.00;83.70;;;;;;5091253;28;20526;-69
2023/08/25 02:57:12;;;;;;;33.53;20.70;;;27.00;84.00;;;;;;5090333;28;20039;-69
2023/08/25 03:00:25;;;;;;;29.15;20.83;;;27.00;84.00;;;;;;5090757;28;20047;-69
2023/08/25 03:03:28;;;;;;;35.30;22.42;;;27.00;84.20;;;;;;5090319;28;20047;-70
2023/08/25 03:06:32;;;;;;;26.63;20.95;;;27.10;84.20;;;;;;5090363;28;20055;-67
2023/08/25 03:09:36;;;;;;;27.27;21.17;;;27.10;84.60;;;;;;5090098;28;20043;-69
2023/08/25 03:12:40;;;;;;;25.60;21.73;;;27.00;84.70;;;;;;5090364;28;20526;-68
2023/08/25 03:15:48;;;;;;;30.75;20.83;;;26.80;84.90;;;;;;5090141;28;20047;-68
2023/08/25 03:18:53;;;;;;;32.08;21.98;;;26.70;85.30;;;;;;5090100;28;20051;-68
2023/08/25 03:21:56;;;;;;;28.08;21.35;;;26.60;84.90;;;;;;5090309;28;20043;-69
2023/08/25 03:25:04;;;;;;;29.52;20.33;;;26.60;84.80;;;;;;5090254;28;20418;-68
2023/08/25 03:28:08;;;;;;;30.90;20.83;;;26.50;84.90;;;;;;5091032;28;20043;-69
2023/08/25 03:31:13;;;;;;;32.65;21.92;;;26.40;84.50;;;;;;5090275;28;20047;-69
2023/08/25 03:34:17;;;;;;;29.13;19.95;;;26.30;84.70;;;;;;5089887;28;20051;-69
2023/08/25 03:37:23;;;;;;;26.95;19.98;;;26.20;85.00;;;;;;5090031;28;20059;-69
2023/08/25 03:40:28;;;;;;;26.75;20.58;;;26.20;85.10;;;;;;5090204;28;20510;-69
2023/08/25 03:43:35;;;;;;;25.73;20.80;;;26.30;84.70;;;;;;5090138;28;20039;-69
2023/08/25 03:46:38;;;;;;;30.85;19.92;;;26.30;85.00;;;;;;5089970;28;20047;-69
2023/08/25 03:49:42;;;;;;;25.52;19.83;;;26.40;85.10;;;;;;5091063;28;20063;-69
2023/08/25 03:52:49;;;;;;;30.45;20.60;;;26.30;85.00;;;;;;5090045;28;20047;-69
2023/08/25 03:55:53;;;;;;;31.48;21.35;;;26.30;85.40;;;;;;5090635;28;20055;-69
2023/08/25 03:58:56;;;;;;;27.80;21.15;;;26.30;85.70;;;;;;5078078;28;20055;-70
2023/08/25 04:02:02;;;;;;;30.88;20.73;;;26.30;85.80;;;;;;5089708;28;20047;-69
2023/08/25 04:05:07;;;;;;;26.58;20.77;;;26.30;85.60;;;;;;5089694;28;20047;-69
2023/08/25 04:08:11;;;;;;;27.42;20.77;;;26.20;85.80;;;;;;5089466;28;20035;-69
2023/08/25 04:11:15;;;;;;;23.98;20.65;;;26.20;85.70;;;;;;5090505;28;20032;-69
2023/08/25 04:14:19;;;;;;;25.05;20.38;;;26.20;86.10;;;;;;5093383;28;20051;-70
2023/08/25 04:17:23;;;;;;;27.00;19.63;;;26.20;85.90;;;;;;5093417;28;20039;-68
2023/08/25 04:20:28;;;;;;;28.15;20.52;;;26.20;85.90;;;;;;5093311;28;20043;-68
2023/08/25 04:23:32;;;;;;;28.30;21.70;;;26.20;86.00;;;;;;5093080;28;20395;-69
2023/08/25 04:26:36;;;;;;;28.95;22.33;;;26.10;86.40;;;;;;5093197;28;20043;-69
2023/08/25 04:29:41;;;;;;;32.17;20.98;;;26.10;86.40;;;;;;5093286;28;20505;-69
2023/08/25 04:32:45;;;;;;;29.55;21.42;;;26.20;86.50;;;;;;5092869;28;20078;-69
2023/08/25 04:35:50;;;;;;;32.50;20.85;;;26.20;86.30;;;;;;5081507;28;20043;-70
2023/08/25 04:38:54;;;;;;;31.20;22.23;;;26.20;86.10;;;;;;5092881;28;20534;-69
2023/08/25 04:41:58;;;;;;;34.50;20.27;;;26.20;86.40;;;;;;5081644;28;20039;-69
2023/08/25 04:45:04;;;;;;;28.33;18.67;;;26.20;86.10;;;;;;5092738;28;20047;-70
2023/08/25 04:48:08;;;;;;;29.75;19.65;;;26.30;85.70;;;;;;5092792;28;20055;-69
2023/08/25 04:51:15;;;;;;;22.85;20.10;;;26.30;85.60;;;;;;5093004;28;20106;-69
2023/08/25 04:54:19;;;;;;;23.42;19.02;;;26.40;85.40;;;;;;5092728;28;20511;-68
2023/08/25 04:57:25;;;;;;;30.35;19.10;;;26.50;84.90;;;;;;5092618;28;20051;-68
2023/08/25 05:00:30;;;;;;;30.75;19.70;;;26.60;84.60;;;;;;5093644;28;20051;-69
2023/08/25 05:03:34;;;;;;;23.42;19.75;;;26.60;84.40;;;;;;5092458;28;20062;-69
2023/08/25 05:06:39;;;;;;;29.55;20.15;;;26.70;84.00;;;;;;5081248;28;20396;-69
2023/08/25 05:09:43;;;;;;;25.25;18.48;;;26.70;84.10;;;;;;5092318;28;20039;-69
2023/08/25 05:12:47;;;;;;;28.10;18.85;;;26.80;83.90;;;;;;5092708;28;20516;-71
2023/08/25 05:15:54;;;;;;;37.72;19.13;;;27.00;83.40;;;;;;5092541;28;20039;-69
2023/08/25 05:19:13;;;;;;;30.70;19.05;;;27.20;82.70;;;;;;5092095;28;20502;-69
2023/08/25 05:22:17;;;;;;;32.70;19.60;;;27.40;82.40;;;;;;5091558;28;20059;-70
2023/08/25 05:25:21;;;;;;;32.75;20.48;;;27.60;82.00;;;;;;5092220;28;20055;-69
2023/08/25 05:28:25;;;;;;;31.27;22.10;;;28.20;81.50;;;;;;5092980;28;20047;-70
2023/08/25 05:31:29;;;;;;;32.08;21.27;;;28.70;81.30;;;;;;5092737;28;20055;-69
2023/08/25 05:34:42;;;;;;;26.13;19.00;;;29.40;78.80;;;;;;5091673;28;20506;-68
2023/08/25 05:37:49;;;;;;;31.45;19.75;;;30.40;76.70;;;;;;5079941;28;20047;-68
2023/08/25 05:40:55;;;;;;;32.08;20.25;;;31.10;75.40;;;;;;5091950;28;20063;-69
2023/08/25 05:44:01;;;;;;;38.30;20.85;;;31.20;75.00;;;;;;5091619;28;20550;-71
2023/08/25 05:47:05;;;;;;;31.30;20.55;;;30.50;76.10;;;;;;5091581;28;20511;-70
2023/08/25 05:50:09;;;;;;;34.63;20.48;;;30.20;77.40;;;;;;5091664;28;20047;-70
2023/08/25 05:53:13;;;;;;;25.85;19.42;;;30.10;76.50;;;;;;5091584;28;20043;-74
2023/08/25 05:56:17;;;;;;;34.50;18.85;;;30.10;76.40;;;;;;5093253;28;20043;-75
2023/08/25 05:59:21;;;;;;;35.55;20.02;;;30.00;76.70;;;;;;5092407;28;20117;-73
2023/08/25 06:02:24;;;;;;;35.95;20.02;;;29.90;77.00;;;;;;5092669;28;20047;-72
2023/08/25 06:05:28;;;;;;;35.78;20.08;;;29.90;77.00;;;;;;5091631;28;20074;-72
2023/08/25 06:08:32;;;;;;;29.67;18.92;;;30.30;76.80;;;;;;5092211;28;20558;-73
2023/08/25 06:11:36;;;;;;;28.50;17.60;;;31.40;74.10;;;;;;5092368;28;20043;-73
2023/08/25 06:14:41;;;;;;;25.85;17.17;;;32.40;72.00;;;;;;5091069;28;20053;-73
2023/08/25 06:17:45;;;;;;;20.63;15.45;;;33.10;70.60;;;;;;5091735;28;20498;-73
2023/08/25 06:20:52;;;;;;;24.70;17.33;;;33.40;69.40;;;;;;5091224;28;20051;-71
2023/08/25 06:23:56;;;;;;;22.58;16.10;;;33.50;69.20;;;;;;5091688;28;20043;-71
2023/08/25 06:27:02;;;;;;;22.45;16.02;;;33.70;68.90;;;;;;5091748;28;20051;-74
2023/08/25 06:30:08;;;;;;;27.25;16.38;;;33.90;67.60;;;;;;5091135;28;20035;-70
2023/08/25 06:33:12;;;;;;;23.77;16.38;;;33.60;68.30;;;;;;5091323;28;20550;-72
2023/08/25 06:36:16;;;;;;;23.30;16.77;;;33.20;69.70;;;;;;5091456;28;20039;-72
2023/08/25 06:39:21;;;;;;;22.98;16.08;;;32.80;70.20;;;;;;5091074;28;20051;-73
2023/08/25 06:42:24;;;;;;;28.73;16.77;;;32.30;71.40;;;;;;5091502;28;20043;-72
2023/08/25 06:45:30;;;;;;;21.20;15.32;;;32.40;71.60;;;;;;5091644;28;20043;-72
2023/08/25 06:48:34;;;;;;;25.52;16.73;;;32.50;71.00;;;;;;5091401;28;20047;-73
2023/08/25 06:51:39;;;;;;;19.92;16.45;;;32.60;71.10;;;;;;5090707;28;20047;-74
2023/08/25 06:54:42;;;;;;;22.83;16.63;;;32.70;71.10;;;;;;5091354;28;20085;-71
2023/08/25 06:57:47;;;;;;;29.35;15.93;;;32.90;70.40;;;;;;5091735;28;20050;-71
2023/08/25 07:00:52;;;;;;;34.97;16.40;;;33.10;70.80;;;;;;5091168;28;20051;-74
2023/08/25 07:03:56;;;;;;;21.48;16.90;;;33.20;71.70;;;;;;5091091;28;20059;-72
2023/08/25 07:07:00;;;;;;;22.23;16.90;;;33.40;73.70;;;;;;5091569;28;20134;-72
2023/08/25 07:10:06;;;;;;;24.75;16.67;;;33.40;73.90;;;;;;5091304;28;20047;-72
2023/08/25 07:13:09;;;;;;;23.38;16.42;;;33.60;73.50;;;;;;5091903;28;20050;-72
2023/08/25 07:16:14;;;;;;;26.35;16.70;;;33.60;73.80;;;;;;5090177;28;20043;-72
2023/08/25 07:19:18;;;;;;;26.00;17.48;;;33.80;72.50;;;;;;5090162;28;20063;-73
2023/08/25 07:22:22;;;;;;;26.08;16.35;;;34.00;72.10;;;;;;5090857;28;20063;-71
2023/08/25 07:25:26;;;;;;;28.05;17.73;;;34.10;71.90;;;;;;5091155;28;20043;-73
2023/08/25 07:28:30;;;;;;;21.75;17.33;;;34.50;71.30;;;;;;5091170;28;20047;-72
2023/08/25 07:31:35;;;;;;;23.67;17.52;;;34.60;71.10;;;;;;5090460;28;20507;-71
2023/08/25 07:34:44;;;;;;;21.73;16.83;;;34.60;71.30;;;;;;5090499;28;20059;-71
2023/08/25 07:37:48;;;;;;;22.15;16.13;;;34.80;71.40;;;;;;5090441;28;20043;-72
2023/08/25 07:40:52;;;;;;;31.58;17.88;;;34.90;71.10;;;;;;5091168;28;20055;-73
2023/08/25 07:43:56;;;;;;;22.38;17.42;;;34.70;71.50;;;;;;5090769;28;20040;-72
2023/08/25 07:46:59;;;;;;;25.05;17.23;;;34.70;71.50;;;;;;5093089;28;20059;-72
2023/08/25 07:50:04;;;;;;;25.40;16.85;;;34.60;71.60;;;;;;5094635;28;20043;-72
2023/08/25 07:53:08;;;;;;;26.30;15.55;;;34.80;71.70;;;;;;5095022;28;20507;-73
2023/08/25 07:56:12;;;;;;;26.13;17.48;;;35.10;70.10;;;;;;5094786;28;20039;-71
2023/08/25 07:59:16;;;;;;;25.25;16.25;;;35.30;70.60;;;;;;5094522;28;20396;-72
2023/08/25 08:02:20;;;;;;;27.25;16.65;;;35.40;70.60;;;;;;5094676;28;20506;-72
2023/08/25 08:05:26;;;;;;;25.45;16.48;;;35.60;69.90;;;;;;5094851;28;20039;-72
2023/08/25 08:08:31;;;;;;;30.95;16.20;;;35.80;69.90;;;;;;5095411;28;20051;-71
2023/08/25 08:11:35;;;;;;;25.58;16.02;;;35.90;69.20;;;;;;5094242;28;20051;-70
2023/08/25 08:14:39;;;;;;;17.88;15.07;;;35.90;68.60;;;;;;5094166;28;20047;-71
2023/08/25 08:17:43;;;;;;;30.67;16.00;;;36.00;68.40;;;;;;5094267;28;20051;-69
2023/08/25 08:20:48;;;;;;;27.08;16.13;;;35.90;67.30;;;;;;5094355;28;20051;-73
2023/08/25 08:23:52;;;;;;;26.63;16.20;;;35.70;67.40;;;;;;5094263;28;20043;-69
2023/08/25 08:26:57;;;;;;;26.25;16.13;;;36.50;66.60;;;;;;5093584;28;20055;-68
2023/08/25 08:30:00;;;;;;;28.95;16.73;;;37.80;65.30;;;;;;5094222;28;20403;-69
2023/08/25 08:33:06;;;;;;;37.53;17.52;;;38.60;64.70;;;;;;5093914;28;20059;-67
2023/08/25 08:36:10;;;;;;;27.98;16.40;;;39.10;63.80;;;;;;5093643;28;20047;-68
2023/08/25 08:39:15;;;;;;;32.20;18.23;;;39.30;63.20;;;;;;5093834;28;20435;-68
2023/08/25 08:42:18;;;;;;;27.65;16.02;;;39.30;62.80;;;;;;5093956;28;20063;-70
2023/08/25 08:45:24;;;;;;;35.97;16.75;;;39.10;61.90;;;;;;5094580;28;20079;-73
2023/08/25 08:48:31;;;;;;;31.00;16.63;;;39.00;63.40;;;;;;5094233;28;20062;-72
2023/08/25 08:51:38;;;;;;;26.67;16.98;;;39.10;63.90;;;;;;5093646;28;20063;-71
2023/08/25 08:54:44;;;;;;;28.17;17.02;;;39.20;64.00;;;;;;5092244;28;20043;-74
2023/08/25 08:57:49;;;;;;;34.00;16.17;;;39.40;62.50;;;;;;5092408;28;20066;-72
2023/08/25 09:00:53;;;;;;;26.63;15.32;;;39.50;62.40;;;;;;5093273;28;20400;-69
2023/08/25 09:04:02;;;;;;;22.77;15.32;;;39.50;61.90;;;;;;5093200;28;20059;-70
2023/08/25 09:07:07;;;;;;;27.65;16.00;;;39.70;62.10;;;;;;5093473;28;20387;-72
2023/08/25 09:10:11;;;;;;;21.05;14.30;;;39.80;61.20;;;;;;5092468;28;20502;-70
2023/08/25 09:13:15;;;;;;;19.98;14.38;;;39.60;60.40;;;;;;5093678;28;20050;-74
2023/08/25 09:16:21;;;;;;;33.83;16.02;;;39.50;60.70;;;;;;5093215;28;20047;-72
2023/08/25 09:19:29;;;;;;;26.25;14.55;;;39.00;61.00;;;;;;5093038;28;20051;-72
2023/08/25 09:22:34;;;;;;;28.00;13.88;;;38.20;62.10;;;;;;5093274;28;20043;-74
2023/08/25 09:25:42;;;;;;;15.52;12.52;;;37.80;62.90;;;;;;5093837;28;20051;-73
2023/08/25 09:28:46;;;;;;;25.55;14.07;;;37.60;63.20;;;;;;5093165;28;20047;-74
2023/08/25 09:31:50;;;;;;;20.20;14.07;;;37.40;62.60;;;;;;5092411;28;20388;-72
2023/08/25 09:34:55;;;;;;;20.50;13.60;;;37.10;63.10;;;;;;5092478;28;20519;-72
2023/08/25 09:37:59;;;;;;;16.15;12.90;;;36.80;63.50;;;;;;5091589;28;20043;-72
2023/08/25 09:41:03;;;;;;;22.00;14.77;;;36.70;64.30;;;;;;5092976;28;20059;-70
2023/08/25 09:44:07;;;;;;;16.90;12.77;;;36.50;63.50;;;;;;5092429;28;20047;-71
2023/08/25 09:47:12;;;;;;;21.35;14.00;;;37.00;63.50;;;;;;5092224;28;20447;-70
2023/08/25 09:50:16;;;;;;;17.55;13.68;;;38.40;62.20;;;;;;5092297;28;20035;-70
2023/08/25 09:53:23;;;;;;;18.55;13.48;;;39.30;60.40;;;;;;5091684;28;20043;-70
2023/08/25 09:56:27;;;;;;;23.13;13.43;;;39.70;60.10;;;;;;5092278;28;20039;-73
2023/08/25 09:59:31;;;;;;;21.40;12.60;;;39.90;60.00;;;;;;5092085;28;20054;-72
2023/08/25 10:02:35;;;;;;;19.58;12.57;;;40.20;59.20;;;;;;5092203;28;20043;-70
2023/08/25 10:05:41;;;;;;;21.25;13.32;;;40.30;58.30;;;;;;5092038;28;20043;-70
2023/08/25 10:08:47;;;;;;;19.92;13.90;;;40.50;59.40;;;;;;5091639;28;20047;-72
2023/08/25 10:11:52;;;;;;;21.95;13.38;;;40.60;59.60;;;;;;5092209;28;20054;-71
2023/08/25 10:14:57;;;;;;;17.88;13.95;;;40.40;58.40;;;;;;5092180;28;20043;-71
2023/08/25 10:18:06;;;;;;;19.77;14.00;;;40.60;59.30;;;;;;5092024;28;20522;-71
2023/08/25 10:21:12;;;;;;;22.30;14.82;;;40.50;63.40;;;;;;5091953;28;20055;-74
2023/08/25 10:24:20;;;;;;;21.63;15.63;;;39.80;63.90;;;;;;5091981;28;20047;-74
2023/08/25 10:27:28;;;;;;;18.52;14.25;;;39.40;65.20;;;;;;5092220;28;20047;-72
2023/08/25 10:30:33;;;;;;;19.73;15.38;;;39.00;65.80;;;;;;5092469;28;20047;-74
2023/08/25 10:33:51;;;;;;;21.95;15.20;;;38.70;66.00;;;;;;5091663;28;20059;-73
2023/08/25 10:37:06;;;;;;;20.25;14.73;;;38.50;66.60;;;;;;5090752;28;20051;-74
2023/08/25 10:40:10;;;;;;;16.23;13.77;;;38.30;66.40;;;;;;5090963;28;20198;-74
2023/08/25 10:43:15;;;;;;;15.43;13.77;;;38.20;66.00;;;;;;5091550;28;20043;-74
2023/08/25 10:46:23;;;;;;;17.73;14.15;;;38.00;65.80;;;;;;5092350;28;20043;-73
2023/08/25 10:49:28;;;;;;;19.35;14.77;;;37.90;66.10;;;;;;5091404;28;20043;-73
2023/08/25 10:52:33;;;;;;;18.02;14.18;;;37.80;66.60;;;;;;5091425;28;20051;-75
2023/08/25 10:55:37;;;;;;;19.90;14.52;;;37.80;66.90;;;;;;5091397;28;20647;-74
2023/08/25 10:58:41;;;;;;;17.90;14.30;;;37.70;67.30;;;;;;5091278;28;20062;-73
2023/08/25 11:01:58;;;;;;;17.30;14.52;;;37.70;67.80;;;;;;5091631;28;20071;-73
2023/08/25 11:05:31;;;;;;;21.90;16.00;;;37.70;68.80;;;;;;5090411;28;20052;-74
2023/08/25 11:08:35;;;;;;;18.30;16.17;;;37.60;68.70;;;;;;5091127;28;20043;-74
2023/08/25 11:11:42;;;;;;;19.77;15.23;;;37.50;68.80;;;;;;5091597;28;20051;-72
2023/08/25 11:14:48;;;;;;;21.88;15.32;;;37.40;69.80;;;;;;5091722;28;20059;-74
2023/08/25 11:17:53;;;;;;;21.10;15.50;;;37.30;70.10;;;;;;5091374;28;20043;-75
2023/08/25 11:20:59;;;;;;;18.63;14.50;;;37.30;71.00;;;;;;5092231;28;20051;-74
2023/08/25 11:24:07;;;;;;;23.33;15.77;;;37.10;71.70;;;;;;5094781;28;20043;-74
2023/08/25 11:27:12;;;;;;;16.35;14.57;;;37.00;71.60;;;;;;5095668;28;20047;-74
2023/08/25 11:30:16;;;;;;;18.55;14.85;;;37.00;72.40;;;;;;5095637;28;20044;-74
2023/08/25 11:33:21;;;;;;;25.10;16.15;;;37.00;72.50;;;;;;5095106;28;20063;-74
2023/08/25 11:36:25;;;;;;;16.80;15.10;;;36.90;73.60;;;;;;5094618;28;20055;-74
2023/08/25 11:39:29;;;;;;;17.15;14.48;;;36.90;74.10;;;;;;5096708;28;20055;-73
2023/08/25 11:42:34;;;;;;;25.80;16.25;;;36.80;73.20;;;;;;5094220;28;20043;-73
2023/08/25 11:45:38;;;;;;;17.42;15.50;;;36.70;73.90;;;;;;5082281;28;20055;-73
2023/08/25 11:48:42;;;;;;;17.50;15.43;;;36.70;74.00;;;;;;5094663;28;20047;-72
2023/08/25 11:51:49;;;;;;;22.55;15.70;;;36.60;75.00;;;;;;5095018;28;20058;-72
2023/08/25 11:54:53;;;;;;;23.52;15.73;;;37.60;73.40;;;;;;5094962;28;20043;-72
2023/08/25 11:57:57;;;;;;;24.70;16.17;;;38.60;71.20;;;;;;5094924;28;20047;-72
2023/08/25 12:01:06;;;;;;;23.65;16.48;;;38.70;70.50;;;;;;5094411;28;20058;-73
2023/08/25 12:04:24;;;;;;;19.35;15.88;;;38.90;70.60;;;;;;5094512;28;20519;-73
2023/08/25 12:07:31;;;;;;;22.35;16.42;;;39.30;69.80;;;;;;5094855;28;20403;-73
2023/08/25 12:10:36;;;;;;;22.42;16.00;;;39.00;70.50;;;;;;5094755;28;20503;-74
2023/08/25 12:13:43;;;;;;;26.35;15.32;;;38.90;71.10;;;;;;5094526;28;20047;-74
2023/08/25 12:16:47;;;;;;;19.83;16.20;;;39.00;71.10;;;;;;5094485;28;20043;-73
2023/08/25 12:19:52;;;;;;;19.20;16.00;;;39.10;70.70;;;;;;5094462;28;20059;-73
2023/08/25 12:23:00;;;;;;;18.48;15.65;;;39.00;71.40;;;;;;5094456;28;20055;-72
2023/08/25 12:26:07;;;;;;;16.90;14.95;;;39.00;71.80;;;;;;5093715;28;20043;-73
2023/08/25 12:29:12;;;;;;;19.45;14.68;;;39.00;72.20;;;;;;5094108;28;20522;-72
2023/08/25 12:32:16;;;;;;;19.67;15.98;;;39.10;72.20;;;;;;5093884;28;20047;-71
2023/08/25 12:35:22;;;;;;;21.58;15.43;;;39.20;71.60;;;;;;5094667;28;20043;-71
2023/08/25 12:38:27;;;;;;;18.90;15.15;;;39.20;71.90;;;;;;5093047;28;20035;-72
2023/08/25 12:41:31;;;;;;;19.20;15.30;;;39.30;71.40;;;;;;5093172;28;20051;-72
2023/08/25 12:44:35;;;;;;;23.10;15.23;;;39.30;70.80;;;;;;5093947;28;20055;-70
2023/08/25 12:47:39;;;;;;;44.50;16.70;;;39.30;70.40;;;;;;5094163;28;20039;-71
2023/08/25 12:50:44;;;;;;;22.30;15.70;;;39.10;70.70;;;;;;5093840;28;20047;-71
2023/08/25 12:53:49;;;;;;;18.85;14.32;;;39.00;70.80;;;;;;5093641;28;20043;-70
2023/08/25 12:56:54;;;;;;;19.75;15.07;;;39.20;70.80;;;;;;5093829;28;20047;-70
2023/08/25 12:59:59;;;;;;;24.70;14.95;;;39.20;70.40;;;;;;5093439;28;20051;-70
2023/08/25 13:03:03;;;;;;;24.50;14.50;;;38.80;70.80;;;;;;5092809;28;20518;-72
2023/08/25 13:06:08;;;;;;;17.90;14.98;;;38.80;71.20;;;;;;5093295;28;20046;-70
2023/08/25 13:09:12;;;;;;;18.40;15.35;;;38.50;71.50;;;;;;5093342;28;20051;-70
2023/08/25 13:12:16;;;;;;;23.88;15.63;;;38.20;72.30;;;;;;5092995;28;20519;-71
2023/08/25 13:15:20;;;;;;;21.77;15.48;;;38.20;72.80;;;;;;5093078;28;20043;-70
2023/08/25 13:18:26;;;;;;;19.65;15.07;;;38.70;71.90;;;;;;5093155;28;20043;-71
2023/08/25 13:21:30;;;;;;;19.42;15.70;;;38.70;71.70;;;;;;5093295;28;20393;-70
2023/08/25 13:24:34;;;;;;;16.70;15.07;;;38.30;71.60;;;;;;5093268;28;20055;-70
2023/08/25 13:27:40;;;;;;;17.20;14.23;;;38.00;73.10;;;;;;5092890;28;20114;-72
2023/08/25 13:30:44;;;;;;;17.63;14.23;;;37.90;73.30;;;;;;5093150;28;20067;-71
2023/08/25 13:33:48;;;;;;;21.15;15.38;;;38.20;72.70;;;;;;5092176;28;20051;-72
2023/08/25 13:36:53;;;;;;;25.17;14.50;;;38.70;71.70;;;;;;5092662;28;20062;-70
2023/08/25 13:39:56;;;;;;;17.70;13.80;;;38.60;70.60;;;;;;5092586;28;20047;-70
2023/08/25 13:43:01;;;;;;;19.50;14.85;;;38.50;71.20;;;;;;5092746;28;20062;-69
2023/08/25 13:46:04;;;;;;;21.10;13.75;;;38.20;70.80;;;;;;5092636;28;20059;-71
2023/08/25 13:49:08;;;;;;;20.85;15.07;;;38.10;72.50;;;;;;5092672;28;20047;-69
2023/08/25 13:52:12;;;;;;;17.30;13.82;;;38.10;71.50;;;;;;5092590;28;20055;-70
2023/08/25 13:55:19;;;;;;;20.90;15.38;;;38.10;72.10;;;;;;5091909;28;20043;-69
2023/08/25 13:58:23;;;;;;;16.13;13.15;;;37.80;73.20;;;;;;5092870;28;20062;-69
2023/08/25 14:01:27;;;;;;;19.55;14.25;;;38.00;72.60;;;;;;5091957;28;20051;-68
2023/08/25 14:04:31;;;;;;;14.77;13.43;;;38.10;71.80;;;;;;5092134;28;20039;-68
2023/08/25 14:07:35;;;;;;;21.55;14.43;;;38.10;71.50;;;;;;5092278;28;20047;-68
2023/08/25 14:10:39;;;;;;;18.77;13.10;;;38.00;71.00;;;;;;5092339;28;20051;-69
2023/08/25 14:13:46;;;;;;;14.45;12.98;;;38.10;71.30;;;;;;5092067;28;20039;-71
2023/08/25 14:16:49;;;;;;;18.05;13.70;;;37.90;71.80;;;;;;5091761;28;20051;-72
2023/08/25 14:19:54;;;;;;;18.27;13.55;;;37.20;73.00;;;;;;5091945;28;20348;-74
2023/08/25 14:22:59;;;;;;;18.42;14.35;;;36.70;73.40;;;;;;5091827;28;20046;-71
2023/08/25 14:26:03;;;;;;;14.57;13.27;;;36.40;73.80;;;;;;5091677;28;20031;-73
2023/08/25 14:29:07;;;;;;;31.17;14.32;;;36.20;74.60;;;;;;5079498;28;20505;-73
2023/08/25 14:32:10;;;;;;;17.55;14.07;;;35.90;74.50;;;;;;5091752;28;20511;-71
2023/08/25 14:35:14;;;;;;;21.05;14.10;;;35.70;74.90;;;;;;5092103;28;20047;-72
2023/08/25 14:38:18;;;;;;;19.95;13.93;;;35.50;76.60;;;;;;5091575;28;20039;-73
2023/08/25 14:41:22;;;;;;;17.60;13.65;;;35.40;76.50;;;;;;5091780;28;20058;-72
2023/08/25 14:44:27;;;;;;;20.80;14.60;;;35.40;76.50;;;;;;5091657;28;20043;-72
2023/08/25 14:47:31;;;;;;;20.83;14.52;;;35.40;77.20;;;;;;5090776;28;20043;-70
2023/08/25 14:50:35;;;;;;;16.27;13.20;;;36.00;75.60;;;;;;5091577;28;20047;-71
2023/08/25 14:53:42;;;;;;;19.35;13.10;;;37.10;74.20;;;;;;5091359;28;20218;-70
2023/08/25 14:56:47;;;;;;;20.50;13.85;;;38.00;71.70;;;;;;5090024;28;20055;-69
2023/08/25 14:59:50;;;;;;;17.23;12.90;;;37.40;72.50;;;;;;5091455;28;20055;-70
2023/08/25 15:02:54;;;;;;;18.60;13.63;;;36.80;73.60;;;;;;5090237;28;20043;-70
2023/08/25 15:06:00;;;;;;;21.73;14.25;;;36.30;74.40;;;;;;5091274;28;20067;-71
2023/08/25 15:09:05;;;;;;;23.70;14.25;;;35.90;75.30;;;;;;5090702;28;20051;-70
2023/08/25 15:12:09;;;;;;;20.85;14.60;;;35.50;74.80;;;;;;5090786;28;20415;-68
2023/08/25 15:15:13;;;;;;;23.75;14.52;;;35.30;75.80;;;;;;5090942;28;20051;-69
2023/08/25 15:18:17;;;;;;;24.67;14.65;;;35.10;77.70;;;;;;5090905;28;20044;-69
2023/08/25 15:21:21;;;;;;;17.60;14.77;;;35.00;75.30;;;;;;5089538;28;20054;-68
2023/08/25 15:24:25;;;;;;;17.00;15.05;;;34.90;76.90;;;;;;5091168;28;20043;-70
2023/08/25 15:27:29;;;;;;;21.77;15.55;;;34.80;77.60;;;;;;5078402;28;20051;-68
2023/08/25 15:30:35;;;;;;;21.17;14.52;;;34.70;78.60;;;;;;5091093;28;20047;-68
2023/08/25 15:33:41;;;;;;;16.20;13.88;;;34.60;78.00;;;;;;5089902;28;20051;-70
2023/08/25 15:36:46;;;;;;;18.38;15.98;;;34.60;78.60;;;;;;5090638;28;20043;-69
2023/08/25 15:39:52;;;;;;;17.55;15.23;;;34.60;79.40;;;;;;5090955;28;20063;-70